Hanjin Buchanan — 3FHB4 — position and weather

sailwx.info

Track history (hours):
 
Tides and Currents Weather Stations Pressure Air Temp Water Temp Dewpoint Dewpoint Depression Visibility Wind Speed Wind Dir Waves Ship Positions

Hanjin Buchanan

Last reported at 2016-Apr-08 06:13 UTC. Time now 2016-May-31 11:52 UTC.
Position N 31°20' E 032°23'.
Warning: this ship's position is 53 days out of date.

Length 255 m; draft 14.1 m.

Type: Cargo ship. MMSI: 357568000.

Date/timePositionNaut miles runAvg speedWind from/ knotsBaromVisibWave heightAir tempDewpointWater temp
2016-Apr-08 06:13N 31°20' E 032°23'8 0.6
2016-Apr-07 15:28N 31°28' E 032°18'0 0.0
2016-Apr-07 10:07N 31°28' E 032°18'0 0.0
2016-Apr-07 09:16N 31°28' E 032°18'  
2016-Apr-04 21:31N 35°27' E 017°41'4113.6
2016-Apr-04 18:32N 35°38' E 016°54'1413.7
2016-Apr-04 17:33N 35°42' E 016°37'1613.5
2016-Apr-04 16:21N 35°47' E 016°18'1113.8
2016-Apr-04 15:33N 35°50' E 016°05'1413.8
2016-Apr-04 14:31N 35°54' E 015°48'2013.7
2016-Apr-04 13:05N 35°60' E 015°25'813.5
2016-Apr-04 12:28N 36°02' E 015°16'2613.3
2016-Apr-04 10:34N 36°10' E 014°46'1312.8
2016-Apr-04 09:33N 36°14' E 014°30'1313.0
2016-Apr-04 08:33N 36°19' E 014°16'1413.3
2016-Apr-04 07:32N 36°24' E 013°60'1313.3
2016-Apr-04 06:33N 36°28' E 013°44'1414.1
2016-Apr-04 05:33N 36°33' E 013°28'1414.1
2016-Apr-04 04:33N 36°38' E 013°12'1413.6
2016-Apr-04 03:33N 36°43' E 012°55'1313.4
2016-Apr-04 02:33N 36°47' E 012°40'1313.0
2016-Apr-04 01:33N 36°53' E 012°25'1413.2
2016-Apr-04 00:32N 36°57' E 012°09'1313.3
2016-Apr-03 23:33N 37°03' E 011°54'  
2016-Apr-01 11:11N 36°01' W 005°11'1015.5
2016-Apr-01 10:34N 35°59' W 005°23'  
Track history (hours):
 
Tides and Currents Weather Stations Pressure Air Temp Water Temp Dewpoint Dewpoint Depression Visibility Wind Speed Wind Dir Waves Ship Positions

Hanjin Buchanan

Last reported at 2016-Apr-08 06:13 UTC. Time now 2016-May-31 11:52 UTC.
Position N 31°20' E 032°23'.
Warning: this ship's position is 53 days out of date.

Length 255 m; draft 14.1 m.

Type: Cargo ship. MMSI: 357568000.

Date/timePositionNaut miles runAvg speedWind from/ knotsBaromVisibWave heightAir tempDewpointWater temp
2016-Apr-08 06:13N 31°20' E 032°23'8 0.6
2016-Apr-07 15:28N 31°28' E 032°18'0 0.0
2016-Apr-07 10:07N 31°28' E 032°18'0 0.0
2016-Apr-07 09:16N 31°28' E 032°18'  
2016-Apr-04 21:31N 35°27' E 017°41'4113.6
2016-Apr-04 18:32N 35°38' E 016°54'1413.7
2016-Apr-04 17:33N 35°42' E 016°37'1613.5
2016-Apr-04 16:21N 35°47' E 016°18'1113.8
2016-Apr-04 15:33N 35°50' E 016°05'1413.8
2016-Apr-04 14:31N 35°54' E 015°48'2013.7
2016-Apr-04 13:05N 35°60' E 015°25'813.5
2016-Apr-04 12:28N 36°02' E 015°16'2613.3
2016-Apr-04 10:34N 36°10' E 014°46'1312.8
2016-Apr-04 09:33N 36°14' E 014°30'1313.0
2016-Apr-04 08:33N 36°19' E 014°16'1413.3
2016-Apr-04 07:32N 36°24' E 013°60'1313.3
2016-Apr-04 06:33N 36°28' E 013°44'1414.1
2016-Apr-04 05:33N 36°33' E 013°28'1414.1
2016-Apr-04 04:33N 36°38' E 013°12'1413.6
2016-Apr-04 03:33N 36°43' E 012°55'1313.4
2016-Apr-04 02:33N 36°47' E 012°40'1313.0
2016-Apr-04 01:33N 36°53' E 012°25'1413.2
2016-Apr-04 00:32N 36°57' E 012°09'1313.3
2016-Apr-03 23:33N 37°03' E 011°54'  
2016-Apr-01 11:11N 36°01' W 005°11'1015.5
2016-Apr-01 10:34N 35°59' W 005°23'  

Dump ship's entire track history